Time;durP1;ratioP1;P1;durP2;ratioP2;P2;SDS_P1;SDS_P2;PMS_P1;PMS_P2;Temp;Humidity;BMP_temperature;BMP_pressure;BME280_temperature;BME280_humidity;BME280_pressure;Samples;Min_cycle;Max_cycle;Signal;HPM_P1;HPM_P2
2021/11/06 15:16:04;;;;;;;1.98;1.30;;;13.60;99.90;;;;;;5093348;27;20389;-67
2021/11/06 15:18:31;;;;;;;2.45;1.42;;;13.30;99.90;;;;;;5094017;28;20020;-67
2021/11/06 15:21:00;;;;;;;3.03;1.35;;;13.50;99.90;;;;;;5092655;28;20031;-68
2021/11/06 15:23:26;;;;;;;4.03;1.40;;;13.10;99.90;;;;;;5093664;28;20495;-67
2021/11/06 15:25:52;;;;;;;3.35;1.60;;;13.50;99.90;;;;;;5078072;28;20028;-67
2021/11/06 15:28:19;;;;;;;1.48;1.38;;;13.20;99.90;;;;;;5073655;28;20020;-67
2021/11/06 15:30:47;;;;;;;1.73;1.63;;;12.60;99.90;;;;;;5073448;28;20511;-67
2021/11/06 15:33:15;;;;;;;4.20;1.77;;;13.10;99.90;;;;;;5073717;28;20025;-67
2021/11/06 15:35:40;;;;;;;1.50;1.40;;;12.80;99.90;;;;;;5073274;28;20086;-67
2021/11/06 15:38:06;;;;;;;1.40;1.30;;;12.00;99.90;;;;;;5073108;28;20021;-65
2021/11/06 15:40:34;;;;;;;2.78;1.90;;;12.60;99.90;;;;;;5073469;28;20028;-67
2021/11/06 15:43:01;;;;;;;3.15;1.70;;;12.50;99.90;;;;;;5093471;28;20078;-67
2021/11/06 15:45:27;;;;;;;1.65;1.50;;;11.80;99.90;;;;;;5093533;28;20028;-67
2021/11/06 15:47:56;;;;;;;2.55;1.83;;;12.30;99.90;;;;;;5093463;28;20062;-67
2021/11/06 15:50:22;;;;;;;2.78;1.50;;;12.10;99.90;;;;;;5093284;28;20395;-67
2021/11/06 15:52:53;;;;;;;3.15;1.63;;;12.20;99.90;;;;;;5093081;28;20104;-66
2021/11/06 15:55:19;;;;;;;1.45;1.45;;;11.40;99.90;;;;;;5091780;28;20074;-69
2021/11/06 15:57:46;;;;;;;1.70;1.60;;;12.70;99.90;;;;;;5093280;28;20028;-70
2021/11/06 16:00:13;;;;;;;2.45;1.30;;;12.20;99.90;;;;;;5093204;28;20054;-70
2021/11/06 16:02:40;;;;;;;1.70;1.58;;;11.90;99.90;;;;;;5093083;28;20504;-70
2021/11/06 16:05:07;;;;;;;3.03;1.60;;;11.50;99.90;;;;;;5093141;28;20063;-70
2021/11/06 16:07:35;;;;;;;3.25;1.70;;;11.90;99.90;;;;;;5092721;28;20096;-70
2021/11/06 16:10:00;;;;;;;2.38;2.00;;;11.70;99.90;;;;;;5092943;28;20025;-69
2021/11/06 16:12:27;;;;;;;1.63;1.52;;;11.30;99.90;;;;;;5093210;28;20099;-69
2021/11/06 16:14:56;;;;;;;2.88;2.10;;;11.40;99.90;;;;;;5090689;28;20063;-69
2021/11/06 16:17:24;;;;;;;1.98;1.80;;;10.90;99.90;;;;;;5071553;28;20021;-70
2021/11/06 16:19:50;;;;;;;1.38;1.30;;;11.20;99.90;;;;;;5059517;28;20029;-70
2021/11/06 16:22:20;;;;;;;2.22;1.75;;;11.30;99.90;;;;;;5058801;28;20017;-70
2021/11/06 16:24:46;;;;;;;2.47;1.80;;;10.40;99.90;;;;;;5059177;28;20029;-69
2021/11/06 16:27:12;;;;;;;1.90;1.80;;;10.90;99.90;;;;;;5059010;28;20519;-69
2021/11/06 16:29:38;;;;;;;3.45;1.80;;;11.00;99.90;;;;;;5059256;28;20029;-67
2021/11/06 16:32:04;;;;;;;1.90;1.80;;;10.90;99.90;;;;;;5058957;28;20029;-69
2021/11/06 16:34:30;;;;;;;1.70;1.60;;;11.00;99.90;;;;;;5059212;28;20416;-70
2021/11/06 16:36:55;;;;;;;1.88;1.77;;;10.70;99.90;;;;;;5058726;28;20029;-69
2021/11/06 16:39:21;;;;;;;1.85;1.75;;;10.60;99.90;;;;;;5059058;28;20025;-69
2021/11/06 16:41:48;;;;;;;1.70;1.60;;;10.50;99.90;;;;;;5058948;28;20120;-69
2021/11/06 16:44:14;;;;;;;1.80;1.70;;;10.30;99.90;;;;;;5078938;28;20027;-69
2021/11/06 16:46:40;;;;;;;4.80;2.22;;;10.00;99.90;;;;;;5063405;28;20392;-69
2021/11/06 16:49:06;;;;;;;3.42;2.33;;;10.10;99.90;;;;;;5058985;28;20025;-69
2021/11/06 16:51:31;;;;;;;5.70;2.28;;;10.70;99.90;;;;;;5058428;28;20067;-69
2021/11/06 16:53:58;;;;;;;2.38;2.15;;;9.90;99.90;;;;;;5058961;28;20025;-70
2021/11/06 16:56:24;;;;;;;5.57;2.40;;;9.90;99.90;;;;;;5058415;28;20054;-69
2021/11/06 16:58:51;;;;;;;5.28;2.10;;;10.40;99.90;;;;;;5058655;28;20401;-69
2021/11/06 17:01:18;;;;;;;1.98;1.88;;;9.70;99.90;;;;;;5058443;28;20021;-69
2021/11/06 17:03:43;;;;;;;4.10;2.20;;;9.60;99.90;;;;;;5057131;28;20029;-69
2021/11/06 17:06:17;;;;;;;3.28;2.03;;;10.20;99.90;;;;;;5058352;28;20028;-69
2021/11/06 17:11:15;;;;;;;3.42;2.55;;;10.20;99.90;;;;;;5078523;28;20029;-69
2021/11/06 17:13:48;;;;;;;3.63;2.20;;;9.70;99.90;;;;;;5076883;28;20032;-70
2021/11/06 17:16:15;;;;;;;2.03;1.92;;;10.80;99.90;;;;;;5080228;28;20025;-69
2021/11/06 17:18:41;;;;;;;5.15;2.55;;;9.10;99.90;;;;;;5058332;28;20075;-69
2021/11/06 17:21:08;;;;;;;5.30;2.15;;;9.30;99.90;;;;;;5058101;28;20017;-69
2021/11/06 17:23:34;;;;;;;3.05;2.45;;;8.70;99.90;;;;;;5057845;28;20029;-69
2021/11/06 17:26:00;;;;;;;4.72;2.20;;;9.20;99.90;;;;;;5056803;28;20546;-69
2021/11/06 17:28:26;;;;;;;5.95;2.38;;;8.80;99.90;;;;;;5057367;28;20021;-69
2021/11/06 17:30:52;;;;;;;3.72;2.50;;;8.60;99.90;;;;;;5057860;28;20507;-69
2021/11/06 17:33:18;;;;;;;2.60;2.40;;;8.70;99.90;;;;;;5058082;28;20025;-69
2021/11/06 17:35:44;;;;;;;4.38;3.35;;;8.60;99.90;;;;;;5057787;28;20079;-69
2021/11/06 17:38:10;;;;;;;3.55;3.25;;;8.70;99.90;;;;;;5057558;28;20025;-69
2021/11/06 17:40:35;;;;;;;;;;;8.50;99.90;;;;;;5058197;28;20021;-69
2021/11/06 17:43:02;;;;;;;3.33;3.13;;;8.30;99.90;;;;;;5057938;28;20360;-69
2021/11/06 17:45:28;;;;;;;3.00;2.80;;;7.80;99.90;;;;;;5057627;28;20031;-69
2021/11/06 17:47:55;;;;;;;2.67;2.58;;;8.00;99.90;;;;;;5057779;28;20032;-70
2021/11/06 17:50:46;;;;;;;3.28;2.58;;;8.00;99.90;;;;;;5056149;28;20451;-69
2021/11/06 17:53:27;;;;;;;2.78;2.58;;;7.90;99.90;;;;;;5057042;28;20021;-69
2021/11/06 17:55:53;;;;;;;4.15;2.78;;;8.60;99.90;;;;;;5057523;28;20036;-69
2021/11/06 17:58:19;;;;;;;2.88;2.67;;;7.80;99.90;;;;;;5057329;28;20129;-69
2021/11/06 18:00:51;;;;;;;2.60;2.40;;;8.10;99.90;;;;;;5057516;28;20031;-69
2021/11/06 18:03:17;;;;;;;2.88;2.67;;;7.70;99.90;;;;;;5057172;28;20025;-69
2021/11/06 18:05:43;;;;;;;2.92;2.72;;;8.40;99.90;;;;;;5057349;28;20052;-69
2021/11/06 18:08:09;;;;;;;3.45;3.15;;;7.80;99.90;;;;;;5060955;28;20024;-66
2021/11/06 18:10:36;;;;;;;;;;;8.70;99.90;;;;;;5077738;28;20032;-69
2021/11/06 18:13:02;;;;;;;3.75;2.75;;;8.00;99.90;;;;;;5077091;28;19904;-69
2021/11/06 18:15:29;;;;;;;2.90;2.80;;;7.60;99.90;;;;;;5081511;28;20530;-69
2021/11/06 18:17:55;;;;;;;5.78;3.22;;;8.50;99.90;;;;;;5062065;28;20431;-68
2021/11/06 18:20:21;;;;;;;;;;;7.80;99.90;;;;;;5057609;28;20070;-69
2021/11/06 18:22:47;;;;;;;3.65;2.95;;;8.60;99.90;;;;;;5056666;28;19905;-69
2021/11/06 18:25:15;;;;;;;3.28;2.92;;;8.00;99.90;;;;;;5056971;28;20111;-69
2021/11/06 18:27:41;;;;;;;4.22;2.70;;;8.00;99.90;;;;;;5056794;28;20019;-69
2021/11/06 18:30:07;;;;;;;2.33;2.20;;;7.40;99.90;;;;;;5057043;28;20024;-69
2021/11/06 18:32:33;;;;;;;2.47;2.28;;;8.30;99.90;;;;;;5056717;28;20493;-69
2021/11/06 18:34:59;;;;;;;;;;;8.20;99.90;;;;;;5057486;28;20025;-69
2021/11/06 18:37:26;;;;;;;7.60;3.92;;;8.00;99.90;;;;;;5056507;28;19905;-69
2021/11/06 18:39:52;;;;;;;2.88;2.63;;;8.20;99.90;;;;;;5056641;28;20025;-69
2021/11/06 18:42:19;;;;;;;2.70;2.50;;;7.90;99.90;;;;;;5056606;28;20025;-68
2021/11/06 18:44:47;;;;;;;2.60;2.50;;;7.70;99.90;;;;;;5056567;28;20021;-68
2021/11/06 18:47:15;;;;;;;2.50;2.30;;;8.30;99.90;;;;;;5056457;28;20052;-68
2021/11/06 18:49:41;;;;;;;3.20;3.00;;;8.40;99.90;;;;;;5056531;28;20025;-69
2021/11/06 18:52:07;;;;;;;;;;;8.40;99.90;;;;;;5056523;28;20021;-69
2021/11/06 18:54:34;;;;;;;3.42;2.78;;;8.80;99.90;;;;;;5056664;28;19909;-69
2021/11/06 18:57:00;;;;;;;3.00;2.80;;;8.60;99.90;;;;;;5056505;28;20451;-68
2021/11/06 18:59:27;;;;;;;;;;;8.50;99.90;;;;;;5057035;28;20025;-68
2021/11/06 19:01:53;;;;;;;3.20;2.55;;;7.90;99.90;;;;;;5059336;28;19915;-68
2021/11/06 19:04:19;;;;;;;3.10;2.80;;;7.90;99.90;;;;;;5075162;28;20090;-68
2021/11/06 19:06:45;;;;;;;2.80;2.60;;;8.10;99.90;;;;;;5076096;28;20024;-68
2021/11/06 19:09:12;;;;;;;4.30;3.95;;;8.40;99.90;;;;;;5071241;28;20048;-68
2021/11/06 19:11:38;;;;;;;2.83;2.63;;;8.00;99.90;;;;;;5076320;28;20021;-68
2021/11/06 19:14:04;;;;;;;4.65;3.17;;;9.00;99.90;;;;;;5076267;28;20131;-67
2021/11/06 19:16:29;;;;;;;;;;;8.50;99.90;;;;;;5075430;28;20071;-67
2021/11/06 19:18:55;;;;;;;3.15;2.92;;;8.30;99.90;;;;;;5068960;28;19972;-68
2021/11/06 19:21:21;;;;;;;4.00;3.00;;;8.60;99.90;;;;;;5075953;28;20024;-68
2021/11/06 19:23:47;;;;;;;3.85;3.33;;;8.60;99.90;;;;;;5075805;28;20504;-67
2021/11/06 19:26:13;;;;;;;;;;;8.30;99.90;;;;;;5076602;28;20086;-68
2021/11/06 19:28:39;;;;;;;3.70;3.37;;;8.60;99.90;;;;;;5076466;28;19911;-67
2021/11/06 19:31:05;;;;;;;;;;;8.80;99.90;;;;;;5076243;28;20277;-68
2021/11/06 19:33:33;;;;;;;3.35;3.10;;;9.70;99.90;;;;;;5076402;28;19904;-68
2021/11/06 19:35:59;;;;;;;3.08;2.80;;;8.90;99.90;;;;;;5076362;28;20012;-68
2021/11/06 19:38:25;;;;;;;3.63;3.00;;;9.30;99.90;;;;;;5075667;28;20396;-68
2021/11/06 19:40:52;;;;;;;4.32;3.75;;;8.10;99.90;;;;;;5076232;28;20103;-68
2021/11/06 19:43:21;;;;;;;6.82;3.15;;;9.10;99.90;;;;;;5076291;28;20032;-67
2021/11/06 19:45:47;;;;;;;4.43;3.55;;;8.20;99.90;;;;;;5075687;28;20032;-68
2021/11/06 19:48:13;;;;;;;;;;;8.70;99.90;;;;;;5076688;28;20092;-68
2021/11/06 19:50:43;;;;;;;4.38;3.22;;;8.90;99.90;;;;;;5077023;28;19926;-68
2021/11/06 19:53:10;;;;;;;3.72;3.33;;;8.20;99.90;;;;;;5079132;28;20040;-68
2021/11/06 19:55:37;;;;;;;4.30;3.90;;;9.30;99.90;;;;;;5078094;28;20506;-68
2021/11/06 19:58:04;;;;;;;4.95;4.32;;;8.20;99.90;;;;;;5061886;28;20025;-68
2021/11/06 20:00:31;;;;;;;4.90;4.40;;;8.80;99.90;;;;;;5079400;28;20021;-68
2021/11/06 20:02:58;;;;;;;7.00;4.45;;;8.80;99.90;;;;;;5076377;28;20024;-67
2021/11/06 20:05:26;;;;;;;4.45;4.05;;;8.50;99.90;;;;;;5079358;28;20033;-68
2021/11/06 20:07:53;;;;;;;5.07;4.10;;;9.00;99.90;;;;;;5078386;28;20032;-68
2021/11/06 20:10:19;;;;;;;4.35;3.92;;;9.20;99.90;;;;;;5079540;28;20388;-66
2021/11/06 20:12:45;;;;;;;5.03;4.55;;;9.60;99.90;;;;;;5079023;28;20028;-68
2021/11/06 20:15:13;;;;;;;6.65;4.18;;;9.90;99.90;;;;;;5080525;28;20044;-68
2021/11/06 20:17:39;;;;;;;4.00;3.70;;;8.90;99.90;;;;;;5067976;28;20483;-68
2021/11/06 20:20:09;;;;;;;9.55;5.40;;;9.20;99.90;;;;;;5059388;28;20036;-68
2021/11/06 20:22:37;;;;;;;8.85;5.50;;;9.70;99.90;;;;;;5058184;28;20449;-68
2021/11/06 20:25:04;;;;;;;7.38;5.25;;;9.60;99.90;;;;;;5057839;28;20025;-68
2021/11/06 20:27:30;;;;;;;5.93;5.32;;;9.00;99.90;;;;;;5058970;28;20025;-68
2021/11/06 20:29:56;;;;;;;6.88;5.22;;;8.90;99.90;;;;;;5058626;28;20021;-68
2021/11/06 20:32:25;;;;;;;10.20;5.60;;;9.50;99.90;;;;;;5058901;28;20025;-68
2021/11/06 20:34:52;;;;;;;6.18;5.10;;;9.10;99.90;;;;;;5058772;28;20435;-68
2021/11/06 20:37:18;;;;;;;7.28;5.50;;;9.10;99.90;;;;;;5058093;28;20028;-68
2021/11/06 20:39:50;;;;;;;17.00;8.88;;;9.40;99.90;;;;;;5058877;28;20028;-67
2021/11/06 20:42:19;;;;;;;7.38;5.93;;;9.10;99.90;;;;;;5058638;28;20082;-68
2021/11/06 20:44:47;;;;;;;10.20;5.13;;;8.80;99.90;;;;;;5057798;28;20021;-68
2021/11/06 20:47:13;;;;;;;7.78;5.97;;;9.00;99.90;;;;;;5058458;28;20436;-68
2021/11/06 20:49:39;;;;;;;9.85;5.93;;;9.40;99.90;;;;;;5064369;28;20020;-68
2021/11/06 20:52:05;;;;;;;11.57;7.93;;;9.80;99.90;;;;;;5057808;28;20025;-68
2021/11/06 20:54:31;;;;;;;6.50;5.45;;;9.40;99.90;;;;;;5058598;28;20028;-67
2021/11/06 20:56:57;;;;;;;6.90;5.07;;;8.60;99.90;;;;;;5068010;28;20028;-68
2021/11/06 20:59:24;;;;;;;7.32;5.43;;;9.20;99.90;;;;;;5066210;28;20067;-68
2021/11/06 21:01:52;;;;;;;8.85;6.15;;;9.50;99.90;;;;;;5057861;28;20397;-67
2021/11/06 21:04:19;;;;;;;10.27;6.00;;;8.90;99.90;;;;;;5058181;28;20051;-68
2021/11/06 21:06:46;;;;;;;8.75;6.03;;;9.40;99.90;;;;;;5057984;28;20064;-68
2021/11/06 21:09:26;;;;;;;8.90;6.80;;;8.90;99.90;;;;;;5070762;28;20188;-67
2021/11/06 21:15:07;;;;;;;10.15;5.40;;;9.30;99.90;;;;;;5077542;28;20094;-67
2021/11/06 21:20:08;;;;;;;5.82;5.22;;;9.30;99.90;;;;;;5078123;28;20560;-67
2021/11/06 21:22:37;;;;;;;12.15;6.22;;;8.90;99.90;;;;;;5077200;28;20035;-67
2021/11/06 21:25:05;;;;;;;7.38;5.30;;;9.50;99.90;;;;;;5077858;28;20050;-67
2021/11/06 21:27:32;;;;;;;7.00;5.15;;;9.20;99.90;;;;;;5077941;28;20020;-67
2021/11/06 21:29:58;;;;;;;7.25;4.95;;;8.70;99.90;;;;;;5077800;28;20055;-67
2021/11/06 21:32:25;;;;;;;6.82;4.80;;;8.90;99.90;;;;;;5078254;28;20070;-67
2021/11/06 21:34:56;;;;;;;9.88;5.38;;;9.10;99.90;;;;;;5077964;28;20024;-67
2021/11/06 21:37:24;;;;;;;7.25;5.72;;;8.60;99.90;;;;;;5077097;28;20032;-67
2021/11/06 21:39:55;;;;;;;7.95;5.55;;;8.80;99.90;;;;;;5077772;28;20024;-67
2021/11/06 21:42:27;;;;;;;5.88;5.38;;;8.50;99.90;;;;;;5077788;28;20036;-67
2021/11/06 21:44:55;;;;;;;9.18;6.00;;;8.50;99.90;;;;;;5077206;28;20036;-67
2021/11/06 21:47:25;;;;;;;10.25;7.22;;;8.20;99.90;;;;;;5077654;28;20029;-67
2021/11/06 21:49:54;;;;;;;6.10;5.50;;;9.70;99.90;;;;;;5077663;28;20103;-67
2021/11/06 21:52:20;;;;;;;11.75;7.50;;;9.10;99.90;;;;;;5076851;28;20020;-67
2021/11/06 21:54:46;;;;;;;9.00;6.68;;;9.40;99.90;;;;;;5074770;28;20055;-67
2021/11/06 21:57:12;;;;;;;9.15;7.32;;;9.30;99.90;;;;;;5065717;28;20087;-67
2021/11/06 21:59:38;;;;;;;8.18;7.32;;;8.60;99.90;;;;;;5062646;28;20477;-67
2021/11/06 22:02:05;;;;;;;9.32;7.95;;;9.40;99.90;;;;;;5057398;28;20029;-67
2021/11/06 22:04:31;;;;;;;13.20;7.15;;;8.50;99.90;;;;;;5057115;28;20074;-67
2021/11/06 22:06:57;;;;;;;7.90;5.47;;;8.70;99.90;;;;;;5056626;28;20021;-67
2021/11/06 22:09:23;;;;;;;5.85;5.25;;;8.50;99.90;;;;;;5070256;28;20054;-67
2021/11/06 22:11:49;;;;;;;8.18;6.72;;;8.60;99.90;;;;;;5057282;28;20068;-67
2021/11/06 22:14:15;;;;;;;;;;;8.90;99.90;;;;;;5056178;28;20078;-67
2021/11/06 22:16:41;;;;;;;8.68;6.32;;;8.40;99.90;;;;;;5073961;28;19904;-67
2021/11/06 22:19:12;;;;;;;5.82;5.32;;;9.10;99.90;;;;;;5056879;28;20550;-67
2021/11/06 22:21:38;;;;;;;5.88;5.28;;;9.20;99.90;;;;;;5056401;28;20392;-67
2021/11/06 22:24:06;;;;;;;5.40;5.00;;;9.00;99.90;;;;;;5056708;28;20104;-67
2021/11/06 22:26:36;;;;;;;8.38;6.00;;;8.40;99.90;;;;;;5057037;28;20025;-67
2021/11/06 22:29:06;;;;;;;7.07;6.38;;;8.20;99.90;;;;;;5056191;28;20030;-67
2021/11/06 22:31:34;;;;;;;8.90;5.68;;;8.70;99.90;;;;;;5057022;28;20025;-67
2021/11/06 22:34:00;;;;;;;6.18;5.57;;;9.60;99.90;;;;;;5056842;28;20079;-67
2021/11/06 22:36:27;;;;;;;5.82;5.32;;;9.00;99.90;;;;;;5056164;28;20025;-67
2021/11/06 22:38:53;;;;;;;6.88;6.18;;;9.10;99.90;;;;;;5056455;28;20036;-67
2021/11/06 22:41:19;;;;;;;7.70;6.03;;;8.60;99.90;;;;;;5056800;28;20025;-67
2021/11/06 22:43:46;;;;;;;7.65;6.30;;;8.70;99.90;;;;;;5055919;28;20124;-67
2021/11/06 22:46:12;;;;;;;7.03;6.10;;;9.50;99.90;;;;;;5061903;28;20025;-67
2021/11/06 22:48:38;;;;;;;;;;;9.50;99.90;;;;;;5059103;28;20017;-67
2021/11/06 22:51:05;;;;;;;7.50;5.30;;;9.20;99.90;;;;;;5065625;28;19927;-67
2021/11/06 22:53:31;;;;;;;7.85;5.97;;;9.20;99.90;;;;;;5056347;28;20017;-67
2021/11/06 22:56:00;;;;;;;6.47;5.80;;;9.20;99.90;;;;;;5056618;28;20025;-67
2021/11/06 22:58:26;;;;;;;6.47;5.45;;;8.60;99.90;;;;;;5055115;28;20032;-67
2021/11/06 23:01:00;;;;;;;8.93;5.82;;;9.10;99.90;;;;;;5056417;28;20025;-68
2021/11/06 23:03:36;;;;;;;5.72;5.22;;;9.40;99.90;;;;;;5056437;28;20045;-68
2021/11/06 23:06:09;;;;;;;6.85;5.78;;;9.60;99.90;;;;;;5056079;28;20056;-68
2021/11/06 23:08:35;;;;;;;5.82;5.32;;;9.00;99.90;;;;;;5063989;28;20047;-68
2021/11/06 23:11:02;;;;;;;8.98;6.88;;;8.50;99.90;;;;;;5076450;28;20017;-68
2021/11/06 23:13:30;;;;;;;7.32;5.47;;;8.60;99.90;;;;;;5076853;28;20052;-68
2021/11/06 23:15:56;;;;;;;8.00;5.75;;;8.90;99.90;;;;;;5082097;28;20048;-67
2021/11/06 23:18:23;;;;;;;15.25;6.40;;;8.20;99.90;;;;;;5056583;28;20028;-68
2021/11/06 23:20:52;;;;;;;6.40;5.72;;;9.30;99.90;;;;;;5056181;28;20517;-68
2021/11/06 23:23:21;;;;;;;7.30;5.40;;;8.70;99.90;;;;;;5056164;28;20014;-68
2021/11/06 23:25:47;;;;;;;6.47;5.35;;;9.50;99.90;;;;;;5057301;28;20060;-68
2021/11/06 23:28:14;;;;;;;9.52;5.57;;;8.80;99.90;;;;;;5060232;28;20029;-68
2021/11/06 23:30:40;;;;;;;6.80;5.18;;;8.10;99.90;;;;;;5060165;28;20021;-67
2021/11/06 23:33:08;;;;;;;8.60;5.30;;;8.80;99.90;;;;;;5060339;28;20020;-68
2021/11/06 23:35:35;;;;;;;6.47;5.57;;;9.00;99.90;;;;;;5060089;28;20033;-68
2021/11/06 23:38:01;;;;;;;5.53;4.95;;;8.60;99.90;;;;;;5060002;28;20023;-68
2021/11/06 23:40:27;;;;;;;6.32;5.72;;;8.70;99.90;;;;;;5060116;28;20404;-68
2021/11/06 23:42:54;;;;;;;10.20;5.90;;;9.30;99.90;;;;;;5060181;28;20035;-67
2021/11/06 23:45:20;;;;;;;7.53;5.93;;;8.80;99.90;;;;;;5059809;28;20396;-68
2021/11/06 23:47:49;;;;;;;8.55;5.22;;;8.60;99.90;;;;;;5060112;28;20419;-68
2021/11/06 23:50:21;;;;;;;8.02;5.40;;;9.20;99.90;;;;;;5059782;28;20017;-67
2021/11/06 23:53:12;;;;;;;5.00;4.60;;;8.90;99.90;;;;;;5058241;28;20021;-68
2021/11/06 23:55:40;;;;;;;8.73;5.67;;;8.40;99.90;;;;;;5059541;28;20045;-68
2021/11/06 23:58:19;;;;;;;5.03;4.22;;;8.50;99.90;;;;;;5059865;28;20067;-68
